sensor_id;sensor_type;location;lat;lon;timestamp;P1;durP1;ratioP1;P2;durP2;ratioP2
48534;SDS011;34323;52.022;5.686;2022-12-07T00:00:55;7.53;;;5.13;;
48534;SDS011;34323;52.022;5.686;2022-12-07T00:03:28;8.50;;;5.88;;
48534;SDS011;34323;52.022;5.686;2022-12-07T00:05:57;9.85;;;5.80;;
48534;SDS011;34323;52.022;5.686;2022-12-07T00:08:23;10.02;;;5.95;;
48534;SDS011;34323;52.022;5.686;2022-12-07T00:10:49;9.00;;;5.03;;
48534;SDS011;34323;52.022;5.686;2022-12-07T00:13:14;8.80;;;5.18;;
48534;SDS011;34323;52.022;5.686;2022-12-07T00:15:40;15.13;;;5.97;;
48534;SDS011;34323;52.022;5.686;2022-12-07T00:18:05;20.48;;;6.60;;
48534;SDS011;34323;52.022;5.686;2022-12-07T00:20:31;15.52;;;6.00;;
48534;SDS011;34323;52.022;5.686;2022-12-07T00:22:58;8.63;;;4.90;;
48534;SDS011;34323;52.022;5.686;2022-12-07T00:25:23;7.55;;;4.95;;
48534;SDS011;34323;52.022;5.686;2022-12-07T00:27:49;8.82;;;5.13;;
48534;SDS011;34323;52.022;5.686;2022-12-07T00:30:15;10.02;;;5.60;;
48534;SDS011;34323;52.022;5.686;2022-12-07T00:32:40;8.45;;;5.38;;
48534;SDS011;34323;52.022;5.686;2022-12-07T00:35:06;8.15;;;5.15;;
48534;SDS011;34323;52.022;5.686;2022-12-07T00:37:32;8.35;;;5.50;;
48534;SDS011;34323;52.022;5.686;2022-12-07T00:39:57;8.75;;;5.38;;
48534;SDS011;34323;52.022;5.686;2022-12-07T00:42:23;10.57;;;6.22;;
48534;SDS011;34323;52.022;5.686;2022-12-07T00:44:49;9.07;;;5.57;;
48534;SDS011;34323;52.022;5.686;2022-12-07T00:47:14;8.95;;;5.38;;
48534;SDS011;34323;52.022;5.686;2022-12-07T00:49:40;9.25;;;5.63;;
48534;SDS011;34323;52.022;5.686;2022-12-07T00:52:05;12.75;;;5.30;;
48534;SDS011;34323;52.022;5.686;2022-12-07T00:54:31;9.23;;;4.93;;
48534;SDS011;34323;52.022;5.686;2022-12-07T00:56:56;17.17;;;6.53;;
48534;SDS011;34323;52.022;5.686;2022-12-07T00:59:22;10.77;;;5.38;;
48534;SDS011;34323;52.022;5.686;2022-12-07T01:01:47;9.18;;;5.35;;
48534;SDS011;34323;52.022;5.686;2022-12-07T01:04:13;8.63;;;5.25;;
48534;SDS011;34323;52.022;5.686;2022-12-07T01:06:38;19.30;;;5.45;;
48534;SDS011;34323;52.022;5.686;2022-12-07T01:09:04;12.63;;;6.03;;
48534;SDS011;34323;52.022;5.686;2022-12-07T01:11:31;8.60;;;5.68;;
48534;SDS011;34323;52.022;5.686;2022-12-07T01:13:57;7.65;;;5.03;;
48534;SDS011;34323;52.022;5.686;2022-12-07T01:16:24;8.07;;;5.43;;
48534;SDS011;34323;52.022;5.686;2022-12-07T01:18:52;17.02;;;5.90;;
48534;SDS011;34323;52.022;5.686;2022-12-07T01:21:21;9.32;;;5.60;;
48534;SDS011;34323;52.022;5.686;2022-12-07T01:23:51;15.68;;;6.15;;
48534;SDS011;34323;52.022;5.686;2022-12-07T01:26:19;9.43;;;5.97;;
48534;SDS011;34323;52.022;5.686;2022-12-07T01:28:46;9.73;;;5.72;;
48534;SDS011;34323;52.022;5.686;2022-12-07T01:31:13;11.07;;;6.00;;
48534;SDS011;34323;52.022;5.686;2022-12-07T01:33:42;7.57;;;4.63;;
48534;SDS011;34323;52.022;5.686;2022-12-07T01:36:16;8.43;;;4.72;;
48534;SDS011;34323;52.022;5.686;2022-12-07T01:38:42;9.35;;;5.60;;
48534;SDS011;34323;52.022;5.686;2022-12-07T01:41:09;9.35;;;5.40;;
48534;SDS011;34323;52.022;5.686;2022-12-07T01:43:35;8.55;;;5.63;;
48534;SDS011;34323;52.022;5.686;2022-12-07T01:46:02;13.32;;;6.25;;
48534;SDS011;34323;52.022;5.686;2022-12-07T01:48:33;12.10;;;5.80;;
48534;SDS011;34323;52.022;5.686;2022-12-07T01:51:02;13.55;;;6.65;;
48534;SDS011;34323;52.022;5.686;2022-12-07T01:53:33;12.73;;;5.97;;
48534;SDS011;34323;52.022;5.686;2022-12-07T01:56:00;15.93;;;6.32;;
48534;SDS011;34323;52.022;5.686;2022-12-07T01:58:26;16.27;;;5.88;;
48534;SDS011;34323;52.022;5.686;2022-12-07T02:00:53;10.90;;;6.90;;
48534;SDS011;34323;52.022;5.686;2022-12-07T02:03:19;8.98;;;5.88;;
48534;SDS011;34323;52.022;5.686;2022-12-07T02:05:51;13.55;;;6.28;;
48534;SDS011;34323;52.022;5.686;2022-12-07T02:08:18;11.68;;;6.43;;
48534;SDS011;34323;52.022;5.686;2022-12-07T02:10:44;11.70;;;5.97;;
48534;SDS011;34323;52.022;5.686;2022-12-07T02:13:18;12.20;;;6.50;;
48534;SDS011;34323;52.022;5.686;2022-12-07T02:18:48;13.13;;;5.30;;
48534;SDS011;34323;52.022;5.686;2022-12-07T02:21:34;16.52;;;7.05;;
48534;SDS011;34323;52.022;5.686;2022-12-07T02:26:55;12.57;;;6.15;;
48534;SDS011;34323;52.022;5.686;2022-12-07T02:29:57;14.70;;;5.93;;
48534;SDS011;34323;52.022;5.686;2022-12-07T02:32:36;11.38;;;5.57;;
48534;SDS011;34323;52.022;5.686;2022-12-07T02:40:10;8.77;;;5.80;;
48534;SDS011;34323;52.022;5.686;2022-12-07T02:43:09;10.60;;;6.22;;
48534;SDS011;34323;52.022;5.686;2022-12-07T02:45:42;9.40;;;5.72;;
48534;SDS011;34323;52.022;5.686;2022-12-07T02:48:11;9.13;;;5.03;;
48534;SDS011;34323;52.022;5.686;2022-12-07T02:50:43;9.68;;;5.32;;
48534;SDS011;34323;52.022;5.686;2022-12-07T02:53:29;12.57;;;5.68;;
48534;SDS011;34323;52.022;5.686;2022-12-07T02:56:03;12.43;;;6.35;;
48534;SDS011;34323;52.022;5.686;2022-12-07T03:01:40;10.95;;;5.60;;
48534;SDS011;34323;52.022;5.686;2022-12-07T03:10:08;11.57;;;5.53;;
48534;SDS011;34323;52.022;5.686;2022-12-07T03:12:42;10.07;;;5.43;;
48534;SDS011;34323;52.022;5.686;2022-12-07T03:15:16;12.35;;;5.30;;
48534;SDS011;34323;52.022;5.686;2022-12-07T03:17:46;14.80;;;5.25;;
48534;SDS011;34323;52.022;5.686;2022-12-07T03:20:14;10.20;;;5.07;;
48534;SDS011;34323;52.022;5.686;2022-12-07T03:22:44;9.75;;;5.28;;
48534;SDS011;34323;52.022;5.686;2022-12-07T03:25:11;9.35;;;5.00;;
48534;SDS011;34323;52.022;5.686;2022-12-07T03:27:44;11.70;;;5.40;;
48534;SDS011;34323;52.022;5.686;2022-12-07T03:30:18;10.70;;;6.00;;
48534;SDS011;34323;52.022;5.686;2022-12-07T03:35:32;9.30;;;5.45;;
48534;SDS011;34323;52.022;5.686;2022-12-07T03:38:15;8.98;;;5.03;;
48534;SDS011;34323;52.022;5.686;2022-12-07T03:43:14;8.02;;;5.00;;
48534;SDS011;34323;52.022;5.686;2022-12-07T03:45:42;10.45;;;5.22;;
48534;SDS011;34323;52.022;5.686;2022-12-07T03:51:15;9.23;;;4.90;;
48534;SDS011;34323;52.022;5.686;2022-12-07T03:53:49;6.97;;;4.35;;
48534;SDS011;34323;52.022;5.686;2022-12-07T03:56:20;7.32;;;4.47;;
48534;SDS011;34323;52.022;5.686;2022-12-07T03:58:47;8.13;;;4.90;;
48534;SDS011;34323;52.022;5.686;2022-12-07T04:01:14;10.32;;;4.47;;
48534;SDS011;34323;52.022;5.686;2022-12-07T04:03:39;6.03;;;4.32;;
48534;SDS011;34323;52.022;5.686;2022-12-07T04:06:05;7.28;;;4.13;;
48534;SDS011;34323;52.022;5.686;2022-12-07T04:08:31;9.65;;;5.07;;
48534;SDS011;34323;52.022;5.686;2022-12-07T04:10:56;7.32;;;4.05;;
48534;SDS011;34323;52.022;5.686;2022-12-07T04:13:22;5.43;;;3.65;;
48534;SDS011;34323;52.022;5.686;2022-12-07T04:15:47;11.05;;;4.65;;
48534;SDS011;34323;52.022;5.686;2022-12-07T04:18:13;11.52;;;4.63;;
48534;SDS011;34323;52.022;5.686;2022-12-07T04:20:38;13.48;;;5.03;;
48534;SDS011;34323;52.022;5.686;2022-12-07T04:23:04;10.77;;;4.45;;
48534;SDS011;34323;52.022;5.686;2022-12-07T04:25:29;10.88;;;4.57;;
48534;SDS011;34323;52.022;5.686;2022-12-07T04:27:55;5.32;;;3.47;;
48534;SDS011;34323;52.022;5.686;2022-12-07T04:30:20;7.70;;;4.30;;
48534;SDS011;34323;52.022;5.686;2022-12-07T04:32:46;12.75;;;4.50;;
48534;SDS011;34323;52.022;5.686;2022-12-07T04:35:11;9.20;;;4.35;;
48534;SDS011;34323;52.022;5.686;2022-12-07T04:37:37;8.52;;;3.70;;
48534;SDS011;34323;52.022;5.686;2022-12-07T04:40:05;9.10;;;3.83;;
48534;SDS011;34323;52.022;5.686;2022-12-07T04:42:33;7.88;;;4.45;;
48534;SDS011;34323;52.022;5.686;2022-12-07T04:44:59;9.68;;;4.00;;
48534;SDS011;34323;52.022;5.686;2022-12-07T04:47:24;6.85;;;3.85;;
48534;SDS011;34323;52.022;5.686;2022-12-07T04:49:50;6.95;;;4.22;;
48534;SDS011;34323;52.022;5.686;2022-12-07T04:52:15;9.77;;;4.22;;
48534;SDS011;34323;52.022;5.686;2022-12-07T04:54:41;6.95;;;3.88;;
48534;SDS011;34323;52.022;5.686;2022-12-07T04:57:06;8.38;;;3.92;;
48534;SDS011;34323;52.022;5.686;2022-12-07T04:59:32;14.88;;;4.55;;
48534;SDS011;34323;52.022;5.686;2022-12-07T05:01:57;8.38;;;3.45;;
48534;SDS011;34323;52.022;5.686;2022-12-07T05:04:23;10.98;;;4.00;;
48534;SDS011;34323;52.022;5.686;2022-12-07T05:06:48;7.90;;;3.70;;
48534;SDS011;34323;52.022;5.686;2022-12-07T05:09:14;6.20;;;3.78;;
48534;SDS011;34323;52.022;5.686;2022-12-07T05:11:40;10.32;;;4.28;;
48534;SDS011;34323;52.022;5.686;2022-12-07T05:14:15;7.93;;;3.45;;
48534;SDS011;34323;52.022;5.686;2022-12-07T05:16:43;6.57;;;3.25;;
48534;SDS011;34323;52.022;5.686;2022-12-07T05:19:11;9.00;;;3.83;;
48534;SDS011;34323;52.022;5.686;2022-12-07T05:21:37;6.82;;;3.47;;
48534;SDS011;34323;52.022;5.686;2022-12-07T05:24:03;14.60;;;4.22;;
48534;SDS011;34323;52.022;5.686;2022-12-07T05:26:29;8.90;;;4.43;;
48534;SDS011;34323;52.022;5.686;2022-12-07T05:28:56;8.18;;;4.28;;
48534;SDS011;34323;52.022;5.686;2022-12-07T05:31:22;9.77;;;4.15;;
48534;SDS011;34323;52.022;5.686;2022-12-07T05:33:49;12.65;;;3.97;;
48534;SDS011;34323;52.022;5.686;2022-12-07T05:36:14;8.60;;;3.35;;
48534;SDS011;34323;52.022;5.686;2022-12-07T05:38:40;8.65;;;3.75;;
48534;SDS011;34323;52.022;5.686;2022-12-07T05:41:06;14.82;;;3.88;;
48534;SDS011;34323;52.022;5.686;2022-12-07T05:43:53;6.13;;;3.15;;
48534;SDS011;34323;52.022;5.686;2022-12-07T05:46:18;9.60;;;3.58;;
48534;SDS011;34323;52.022;5.686;2022-12-07T05:48:44;9.75;;;4.28;;
48534;SDS011;34323;52.022;5.686;2022-12-07T05:51:09;9.73;;;4.43;;
48534;SDS011;34323;52.022;5.686;2022-12-07T05:53:35;10.18;;;4.00;;
48534;SDS011;34323;52.022;5.686;2022-12-07T05:56:00;10.77;;;4.32;;
48534;SDS011;34323;52.022;5.686;2022-12-07T05:58:26;7.32;;;3.50;;
48534;SDS011;34323;52.022;5.686;2022-12-07T06:01:10;9.63;;;4.15;;
48534;SDS011;34323;52.022;5.686;2022-12-07T06:03:35;8.18;;;3.75;;
48534;SDS011;34323;52.022;5.686;2022-12-07T06:06:01;7.47;;;4.05;;
48534;SDS011;34323;52.022;5.686;2022-12-07T06:08:26;7.70;;;3.70;;
48534;SDS011;34323;52.022;5.686;2022-12-07T06:10:52;6.80;;;3.70;;
48534;SDS011;34323;52.022;5.686;2022-12-07T06:13:37;6.13;;;3.50;;
48534;SDS011;34323;52.022;5.686;2022-12-07T06:16:03;7.72;;;3.67;;
48534;SDS011;34323;52.022;5.686;2022-12-07T06:18:29;5.82;;;3.08;;
48534;SDS011;34323;52.022;5.686;2022-12-07T06:20:54;17.83;;;4.05;;
48534;SDS011;34323;52.022;5.686;2022-12-07T06:23:20;11.30;;;4.32;;
48534;SDS011;34323;52.022;5.686;2022-12-07T06:25:46;7.55;;;4.00;;
48534;SDS011;34323;52.022;5.686;2022-12-07T06:28:11;6.65;;;4.00;;
48534;SDS011;34323;52.022;5.686;2022-12-07T06:30:37;12.20;;;4.18;;
48534;SDS011;34323;52.022;5.686;2022-12-07T06:33:02;9.93;;;3.90;;
48534;SDS011;34323;52.022;5.686;2022-12-07T06:35:28;8.38;;;4.13;;
48534;SDS011;34323;52.022;5.686;2022-12-07T06:37:53;6.75;;;3.65;;
48534;SDS011;34323;52.022;5.686;2022-12-07T06:40:19;10.90;;;4.35;;
48534;SDS011;34323;52.022;5.686;2022-12-07T06:42:44;8.48;;;3.63;;
48534;SDS011;34323;52.022;5.686;2022-12-07T06:45:10;8.63;;;4.43;;
48534;SDS011;34323;52.022;5.686;2022-12-07T06:47:35;9.88;;;4.75;;
48534;SDS011;34323;52.022;5.686;2022-12-07T06:50:01;8.98;;;3.97;;
48534;SDS011;34323;52.022;5.686;2022-12-07T06:52:28;13.52;;;4.57;;
48534;SDS011;34323;52.022;5.686;2022-12-07T06:54:53;9.80;;;4.43;;
48534;SDS011;34323;52.022;5.686;2022-12-07T06:57:19;7.50;;;3.53;;
48534;SDS011;34323;52.022;5.686;2022-12-07T06:59:47;9.73;;;3.90;;
48534;SDS011;34323;52.022;5.686;2022-12-07T07:02:13;5.22;;;3.38;;
48534;SDS011;34323;52.022;5.686;2022-12-07T07:04:38;13.57;;;4.18;;
48534;SDS011;34323;52.022;5.686;2022-12-07T07:07:04;9.98;;;3.72;;
48534;SDS011;34323;52.022;5.686;2022-12-07T07:09:30;8.52;;;4.80;;
48534;SDS011;34323;52.022;5.686;2022-12-07T07:11:55;6.30;;;3.85;;
48534;SDS011;34323;52.022;5.686;2022-12-07T07:14:21;7.22;;;3.65;;
48534;SDS011;34323;52.022;5.686;2022-12-07T07:16:47;4.32;;;2.95;;
48534;SDS011;34323;52.022;5.686;2022-12-07T07:19:12;8.25;;;4.10;;
48534;SDS011;34323;52.022;5.686;2022-12-07T07:21:38;7.47;;;3.42;;
48534;SDS011;34323;52.022;5.686;2022-12-07T07:24:03;8.85;;;3.75;;
48534;SDS011;34323;52.022;5.686;2022-12-07T07:26:29;7.25;;;4.03;;
48534;SDS011;34323;52.022;5.686;2022-12-07T07:28:55;9.65;;;3.97;;
48534;SDS011;34323;52.022;5.686;2022-12-07T07:31:20;9.70;;;4.40;;
48534;SDS011;34323;52.022;5.686;2022-12-07T07:33:47;9.23;;;3.40;;
48534;SDS011;34323;52.022;5.686;2022-12-07T07:36:12;13.48;;;3.80;;
48534;SDS011;34323;52.022;5.686;2022-12-07T07:38:38;13.10;;;3.90;;
48534;SDS011;34323;52.022;5.686;2022-12-07T07:41:04;7.45;;;3.47;;
48534;SDS011;34323;52.022;5.686;2022-12-07T07:43:29;14.95;;;4.40;;
48534;SDS011;34323;52.022;5.686;2022-12-07T07:45:55;12.05;;;4.40;;
48534;SDS011;34323;52.022;5.686;2022-12-07T07:48:20;4.88;;;2.83;;
48534;SDS011;34323;52.022;5.686;2022-12-07T07:50:47;17.95;;;4.15;;
48534;SDS011;34323;52.022;5.686;2022-12-07T07:53:13;6.03;;;3.50;;
48534;SDS011;34323;52.022;5.686;2022-12-07T07:55:38;10.45;;;4.10;;
48534;SDS011;34323;52.022;5.686;2022-12-07T07:58:04;12.02;;;4.18;;
48534;SDS011;34323;52.022;5.686;2022-12-07T08:00:29;9.63;;;3.30;;
48534;SDS011;34323;52.022;5.686;2022-12-07T08:02:55;6.85;;;3.20;;
48534;SDS011;34323;52.022;5.686;2022-12-07T08:05:21;6.85;;;3.15;;
48534;SDS011;34323;52.022;5.686;2022-12-07T08:07:46;8.95;;;3.17;;
48534;SDS011;34323;52.022;5.686;2022-12-07T08:10:12;6.10;;;3.33;;
48534;SDS011;34323;52.022;5.686;2022-12-07T08:12:39;5.20;;;2.83;;
48534;SDS011;34323;52.022;5.686;2022-12-07T08:15:27;5.40;;;3.15;;
48534;SDS011;34323;52.022;5.686;2022-12-07T08:17:53;6.63;;;3.30;;
48534;SDS011;34323;52.022;5.686;2022-12-07T08:20:19;6.95;;;3.63;;
48534;SDS011;34323;52.022;5.686;2022-12-07T08:22:45;10.85;;;4.20;;
48534;SDS011;34323;52.022;5.686;2022-12-07T08:25:11;7.90;;;4.13;;
48534;SDS011;34323;52.022;5.686;2022-12-07T08:27:36;12.88;;;4.40;;
48534;SDS011;34323;52.022;5.686;2022-12-07T08:30:02;7.95;;;4.25;;
48534;SDS011;34323;52.022;5.686;2022-12-07T08:32:28;7.78;;;3.83;;
48534;SDS011;34323;52.022;5.686;2022-12-07T08:34:53;9.45;;;4.82;;
48534;SDS011;34323;52.022;5.686;2022-12-07T08:37:19;14.63;;;5.13;;
48534;SDS011;34323;52.022;5.686;2022-12-07T08:39:44;6.97;;;4.13;;
48534;SDS011;34323;52.022;5.686;2022-12-07T08:42:10;8.75;;;3.78;;
48534;SDS011;34323;52.022;5.686;2022-12-07T08:44:35;8.15;;;4.10;;
48534;SDS011;34323;52.022;5.686;2022-12-07T08:47:02;8.90;;;4.15;;
48534;SDS011;34323;52.022;5.686;2022-12-07T08:49:31;9.82;;;4.03;;
48534;SDS011;34323;52.022;5.686;2022-12-07T08:52:01;10.60;;;4.03;;
48534;SDS011;34323;52.022;5.686;2022-12-07T08:54:28;10.32;;;4.30;;
48534;SDS011;34323;52.022;5.686;2022-12-07T08:56:54;9.30;;;4.25;;
48534;SDS011;34323;52.022;5.686;2022-12-07T08:59:21;9.90;;;4.35;;
48534;SDS011;34323;52.022;5.686;2022-12-07T09:01:47;10.02;;;4.40;;
48534;SDS011;34323;52.022;5.686;2022-12-07T09:04:12;7.50;;;3.90;;
48534;SDS011;34323;52.022;5.686;2022-12-07T09:06:38;11.52;;;4.35;;
48534;SDS011;34323;52.022;5.686;2022-12-07T09:09:03;22.95;;;4.88;;
48534;SDS011;34323;52.022;5.686;2022-12-07T09:11:29;8.00;;;3.88;;
48534;SDS011;34323;52.022;5.686;2022-12-07T09:13:55;12.18;;;4.22;;
48534;SDS011;34323;52.022;5.686;2022-12-07T09:16:21;14.63;;;4.13;;
48534;SDS011;34323;52.022;5.686;2022-12-07T09:18:47;11.07;;;3.72;;
48534;SDS011;34323;52.022;5.686;2022-12-07T09:21:12;7.97;;;4.07;;
48534;SDS011;34323;52.022;5.686;2022-12-07T09:23:38;7.05;;;3.60;;
48534;SDS011;34323;52.022;5.686;2022-12-07T09:26:04;12.27;;;3.53;;
48534;SDS011;34323;52.022;5.686;2022-12-07T09:28:32;6.60;;;3.25;;
48534;SDS011;34323;52.022;5.686;2022-12-07T09:30:58;8.43;;;3.65;;
48534;SDS011;34323;52.022;5.686;2022-12-07T09:33:24;19.90;;;4.38;;
48534;SDS011;34323;52.022;5.686;2022-12-07T09:35:50;5.90;;;3.03;;
48534;SDS011;34323;52.022;5.686;2022-12-07T09:38:17;5.45;;;3.35;;
48534;SDS011;34323;52.022;5.686;2022-12-07T09:40:43;9.30;;;4.10;;
48534;SDS011;34323;52.022;5.686;2022-12-07T09:43:17;6.15;;;3.03;;
48534;SDS011;34323;52.022;5.686;2022-12-07T09:45:45;6.95;;;3.40;;
48534;SDS011;34323;52.022;5.686;2022-12-07T09:48:16;6.75;;;3.67;;
48534;SDS011;34323;52.022;5.686;2022-12-07T09:50:44;20.45;;;4.97;;
48534;SDS011;34323;52.022;5.686;2022-12-07T09:53:30;9.65;;;4.32;;
48534;SDS011;34323;52.022;5.686;2022-12-07T09:55:59;9.10;;;5.18;;
48534;SDS011;34323;52.022;5.686;2022-12-07T09:58:26;14.05;;;5.15;;
48534;SDS011;34323;52.022;5.686;2022-12-07T10:04:28;15.27;;;5.75;;
48534;SDS011;34323;52.022;5.686;2022-12-07T10:06:38;12.85;;;5.00;;
48534;SDS011;34323;52.022;5.686;2022-12-07T10:09:14;11.57;;;4.45;;
48534;SDS011;34323;52.022;5.686;2022-12-07T10:14:30;14.00;;;4.63;;
48534;SDS011;34323;52.022;5.686;2022-12-07T10:16:57;3.30;;;2.42;;
48534;SDS011;34323;52.022;5.686;2022-12-07T10:19:27;4.40;;;2.47;;
48534;SDS011;34323;52.022;5.686;2022-12-07T10:24:34;7.65;;;3.20;;
48534;SDS011;34323;52.022;5.686;2022-12-07T10:27:02;5.35;;;2.70;;
48534;SDS011;34323;52.022;5.686;2022-12-07T10:29:29;6.32;;;2.38;;
48534;SDS011;34323;52.022;5.686;2022-12-07T10:32:01;9.07;;;3.42;;
48534;SDS011;34323;52.022;5.686;2022-12-07T10:34:30;15.53;;;4.57;;
48534;SDS011;34323;52.022;5.686;2022-12-07T10:39:49;9.20;;;3.33;;
48534;SDS011;34323;52.022;5.686;2022-12-07T10:42:20;12.98;;;3.33;;
48534;SDS011;34323;52.022;5.686;2022-12-07T10:45:06;12.77;;;4.28;;
48534;SDS011;34323;52.022;5.686;2022-12-07T10:47:48;9.15;;;2.95;;
48534;SDS011;34323;52.022;5.686;2022-12-07T10:53:03;3.35;;;1.50;;
48534;SDS011;34323;52.022;5.686;2022-12-07T11:01:42;7.65;;;1.50;;
48534;SDS011;34323;52.022;5.686;2022-12-07T11:12:35;3.78;;;1.05;;
48534;SDS011;34323;52.022;5.686;2022-12-07T11:15:13;6.70;;;1.75;;
48534;SDS011;34323;52.022;5.686;2022-12-07T11:23:13;2.97;;;1.20;;
48534;SDS011;34323;52.022;5.686;2022-12-07T11:28:47;6.15;;;1.42;;
48534;SDS011;34323;52.022;5.686;2022-12-07T11:34:29;4.93;;;1.10;;
48534;SDS011;34323;52.022;5.686;2022-12-07T11:37:01;2.67;;;1.13;;
48534;SDS011;34323;52.022;5.686;2022-12-07T11:39:37;3.17;;;0.98;;
48534;SDS011;34323;52.022;5.686;2022-12-07T11:42:25;4.80;;;0.93;;
48534;SDS011;34323;52.022;5.686;2022-12-07T11:47:40;3.63;;;1.23;;
48534;SDS011;34323;52.022;5.686;2022-12-07T11:55:43;2.92;;;1.00;;
48534;SDS011;34323;52.022;5.686;2022-12-07T12:03:52;6.75;;;1.42;;
48534;SDS011;34323;52.022;5.686;2022-12-07T12:06:23;3.10;;;1.25;;
48534;SDS011;34323;52.022;5.686;2022-12-07T12:08:56;8.57;;;1.58;;
48534;SDS011;34323;52.022;5.686;2022-12-07T12:11:43;6.00;;;1.33;;
48534;SDS011;34323;52.022;5.686;2022-12-07T12:20:35;1.10;;;0.82;;
48534;SDS011;34323;52.022;5.686;2022-12-07T12:23:14;9.25;;;1.15;;
48534;SDS011;34323;52.022;5.686;2022-12-07T12:28:20;5.78;;;1.17;;
48534;SDS011;34323;52.022;5.686;2022-12-07T12:31:04;3.40;;;1.58;;
48534;SDS011;34323;52.022;5.686;2022-12-07T12:33:42;6.20;;;2.80;;
48534;SDS011;34323;52.022;5.686;2022-12-07T12:36:17;8.20;;;2.85;;
48534;SDS011;34323;52.022;5.686;2022-12-07T12:46:54;5.25;;;2.08;;
48534;SDS011;34323;52.022;5.686;2022-12-07T12:51:48;9.00;;;3.17;;
48534;SDS011;34323;52.022;5.686;2022-12-07T12:54:23;10.13;;;1.83;;
48534;SDS011;34323;52.022;5.686;2022-12-07T12:57:10;4.53;;;2.17;;
48534;SDS011;34323;52.022;5.686;2022-12-07T13:02:22;6.53;;;1.10;;
48534;SDS011;34323;52.022;5.686;2022-12-07T13:13:04;9.40;;;1.73;;
48534;SDS011;34323;52.022;5.686;2022-12-07T13:20:52;1.45;;;0.68;;
48534;SDS011;34323;52.022;5.686;2022-12-07T13:26:20;2.80;;;0.98;;
48534;SDS011;34323;52.022;5.686;2022-12-07T13:28:52;3.60;;;1.05;;
48534;SDS011;34323;52.022;5.686;2022-12-07T13:33:56;8.68;;;2.65;;
48534;SDS011;34323;52.022;5.686;2022-12-07T13:36:26;4.07;;;1.55;;
48534;SDS011;34323;52.022;5.686;2022-12-07T13:39:00;2.58;;;1.00;;
48534;SDS011;34323;52.022;5.686;2022-12-07T13:41:43;4.28;;;1.27;;
48534;SDS011;34323;52.022;5.686;2022-12-07T13:44:13;3.92;;;1.05;;
48534;SDS011;34323;52.022;5.686;2022-12-07T13:46:43;9.20;;;1.80;;
48534;SDS011;34323;52.022;5.686;2022-12-07T13:49:31;11.55;;;1.70;;
48534;SDS011;34323;52.022;5.686;2022-12-07T13:52:15;3.88;;;1.35;;
48534;SDS011;34323;52.022;5.686;2022-12-07T13:54:44;2.60;;;0.95;;
48534;SDS011;34323;52.022;5.686;2022-12-07T13:57:15;4.97;;;0.70;;
48534;SDS011;34323;52.022;5.686;2022-12-07T13:59:42;1.92;;;1.02;;
48534;SDS011;34323;52.022;5.686;2022-12-07T14:02:18;1.30;;;0.90;;
48534;SDS011;34323;52.022;5.686;2022-12-07T14:04:46;2.03;;;0.80;;
48534;SDS011;34323;52.022;5.686;2022-12-07T14:07:18;8.35;;;0.85;;
48534;SDS011;34323;52.022;5.686;2022-12-07T14:09:55;2.08;;;0.70;;
48534;SDS011;34323;52.022;5.686;2022-12-07T14:12:26;0.57;;;0.35;;
48534;SDS011;34323;52.022;5.686;2022-12-07T14:14:53;2.38;;;1.10;;
48534;SDS011;34323;52.022;5.686;2022-12-07T14:17:20;4.43;;;1.20;;
48534;SDS011;34323;52.022;5.686;2022-12-07T14:19:49;7.10;;;1.20;;
48534;SDS011;34323;52.022;5.686;2022-12-07T14:25:02;5.72;;;1.73;;
48534;SDS011;34323;52.022;5.686;2022-12-07T14:27:56;3.85;;;2.22;;
48534;SDS011;34323;52.022;5.686;2022-12-07T14:30:25;5.97;;;2.78;;
48534;SDS011;34323;52.022;5.686;2022-12-07T14:32:53;4.75;;;1.65;;
48534;SDS011;34323;52.022;5.686;2022-12-07T14:35:27;4.00;;;1.58;;
48534;SDS011;34323;52.022;5.686;2022-12-07T14:37:53;4.35;;;1.20;;
48534;SDS011;34323;52.022;5.686;2022-12-07T14:40:20;2.28;;;1.10;;
48534;SDS011;34323;52.022;5.686;2022-12-07T14:42:53;2.40;;;1.10;;
48534;SDS011;34323;52.022;5.686;2022-12-07T14:45:22;3.17;;;1.13;;
48534;SDS011;34323;52.022;5.686;2022-12-07T14:47:48;2.92;;;1.23;;
48534;SDS011;34323;52.022;5.686;2022-12-07T14:50:14;5.68;;;0.93;;
48534;SDS011;34323;52.022;5.686;2022-12-07T14:52:43;4.72;;;1.70;;
48534;SDS011;34323;52.022;5.686;2022-12-07T14:57:56;3.58;;;1.65;;
48534;SDS011;34323;52.022;5.686;2022-12-07T15:00:24;3.33;;;1.50;;
48534;SDS011;34323;52.022;5.686;2022-12-07T15:02:52;4.35;;;1.45;;
48534;SDS011;34323;52.022;5.686;2022-12-07T15:05:17;7.53;;;1.83;;
48534;SDS011;34323;52.022;5.686;2022-12-07T15:07:44;4.47;;;1.60;;
48534;SDS011;34323;52.022;5.686;2022-12-07T15:10:32;4.88;;;2.10;;
48534;SDS011;34323;52.022;5.686;2022-12-07T15:13:02;6.55;;;1.80;;
48534;SDS011;34323;52.022;5.686;2022-12-07T15:15:50;9.10;;;1.73;;
48534;SDS011;34323;52.022;5.686;2022-12-07T15:18:17;5.35;;;0.93;;
48534;SDS011;34323;52.022;5.686;2022-12-07T15:20:44;4.13;;;1.05;;
48534;SDS011;34323;52.022;5.686;2022-12-07T15:23:10;2.85;;;1.10;;
48534;SDS011;34323;52.022;5.686;2022-12-07T15:25:37;1.92;;;1.00;;
48534;SDS011;34323;52.022;5.686;2022-12-07T15:28:05;10.00;;;1.20;;
48534;SDS011;34323;52.022;5.686;2022-12-07T15:30:31;4.97;;;1.70;;
48534;SDS011;34323;52.022;5.686;2022-12-07T15:32:56;7.10;;;1.50;;
48534;SDS011;34323;52.022;5.686;2022-12-07T15:35:22;6.13;;;1.50;;
48534;SDS011;34323;52.022;5.686;2022-12-07T15:37:48;7.45;;;1.52;;
48534;SDS011;34323;52.022;5.686;2022-12-07T15:40:13;2.97;;;1.50;;
48534;SDS011;34323;52.022;5.686;2022-12-07T15:42:39;3.25;;;1.90;;
48534;SDS011;34323;52.022;5.686;2022-12-07T15:45:06;6.10;;;1.70;;
48534;SDS011;34323;52.022;5.686;2022-12-07T15:47:35;7.05;;;1.83;;
48534;SDS011;34323;52.022;5.686;2022-12-07T15:50:09;7.45;;;3.25;;
48534;SDS011;34323;52.022;5.686;2022-12-07T15:52:37;9.85;;;3.08;;
48534;SDS011;34323;52.022;5.686;2022-12-07T15:55:03;8.88;;;2.70;;
48534;SDS011;34323;52.022;5.686;2022-12-07T15:57:29;7.78;;;3.03;;
48534;SDS011;34323;52.022;5.686;2022-12-07T15:59:56;6.55;;;2.10;;
48534;SDS011;34323;52.022;5.686;2022-12-07T16:02:21;7.82;;;2.30;;
48534;SDS011;34323;52.022;5.686;2022-12-07T16:04:48;6.05;;;1.80;;
48534;SDS011;34323;52.022;5.686;2022-12-07T16:07:15;3.95;;;1.52;;
48534;SDS011;34323;52.022;5.686;2022-12-07T16:09:41;10.80;;;2.28;;
48534;SDS011;34323;52.022;5.686;2022-12-07T16:12:08;6.80;;;1.73;;
48534;SDS011;34323;52.022;5.686;2022-12-07T16:14:34;3.83;;;1.85;;
48534;SDS011;34323;52.022;5.686;2022-12-07T16:17:00;3.42;;;1.58;;
48534;SDS011;34323;52.022;5.686;2022-12-07T16:19:26;4.70;;;1.73;;
48534;SDS011;34323;52.022;5.686;2022-12-07T16:21:51;4.60;;;2.10;;
48534;SDS011;34323;52.022;5.686;2022-12-07T16:24:17;7.57;;;3.78;;
48534;SDS011;34323;52.022;5.686;2022-12-07T16:26:43;11.52;;;4.30;;
48534;SDS011;34323;52.022;5.686;2022-12-07T16:29:10;11.77;;;3.88;;
48534;SDS011;34323;52.022;5.686;2022-12-07T16:31:37;7.93;;;3.28;;
48534;SDS011;34323;52.022;5.686;2022-12-07T16:34:03;8.90;;;3.58;;
48534;SDS011;34323;52.022;5.686;2022-12-07T16:36:28;9.48;;;3.22;;
48534;SDS011;34323;52.022;5.686;2022-12-07T16:38:54;8.13;;;3.30;;
48534;SDS011;34323;52.022;5.686;2022-12-07T16:41:19;7.57;;;3.17;;
48534;SDS011;34323;52.022;5.686;2022-12-07T16:43:45;6.65;;;2.75;;
48534;SDS011;34323;52.022;5.686;2022-12-07T16:46:11;11.88;;;4.70;;
48534;SDS011;34323;52.022;5.686;2022-12-07T16:48:37;8.88;;;4.55;;
48534;SDS011;34323;52.022;5.686;2022-12-07T16:51:07;6.55;;;3.78;;
48534;SDS011;34323;52.022;5.686;2022-12-07T16:53:34;5.00;;;2.50;;
48534;SDS011;34323;52.022;5.686;2022-12-07T16:56:00;2.90;;;1.73;;
48534;SDS011;34323;52.022;5.686;2022-12-07T16:58:26;3.70;;;1.77;;
48534;SDS011;34323;52.022;5.686;2022-12-07T17:00:51;5.13;;;1.90;;